createdAt,value
2022-09-30T00:02:10.807Z,0.70
2022-09-30T00:04:39.344Z,0.57
2022-09-30T00:07:06.473Z,0.52
2022-09-30T00:09:33.894Z,0.45
2022-09-30T00:12:02.588Z,0.52
2022-09-30T00:14:29.943Z,0.55
2022-09-30T00:17:00.373Z,0.80
2022-09-30T00:19:27.621Z,0.50
2022-09-30T00:21:54.788Z,0.50
2022-09-30T00:24:22.043Z,0.60
2022-09-30T00:26:49.238Z,0.40
2022-09-30T00:29:17.268Z,0.55
2022-09-30T00:31:44.526Z,0.52
2022-09-30T00:34:12.398Z,0.50
2022-09-30T00:36:48.753Z,0.73
2022-09-30T00:39:19.363Z,0.40
2022-09-30T00:41:48.866Z,0.60
2022-09-30T00:44:51.223Z,0.55
2022-09-30T00:47:39.945Z,0.50
2022-09-30T00:50:39.140Z,0.50
2022-09-30T00:53:10.834Z,0.80
2022-09-30T00:55:44.288Z,0.52
2022-09-30T01:00:43.106Z,0.50
2022-09-30T01:03:10.926Z,0.50
2022-09-30T01:05:38.458Z,0.45
2022-09-30T01:08:09.101Z,0.98
2022-09-30T01:10:36.693Z,0.60
2022-09-30T01:13:05.174Z,0.60
2022-09-30T01:15:55.130Z,0.80
2022-09-30T01:18:47.845Z,0.68
2022-09-30T01:21:28.106Z,0.65
2022-09-30T01:23:58.451Z,0.70
2022-09-30T01:26:43.636Z,0.60
2022-09-30T01:29:40.376Z,0.47
2022-09-30T01:32:16.299Z,0.60
2022-09-30T01:35:05.701Z,0.60
2022-09-30T01:38:01.420Z,0.50
2022-09-30T01:40:34.327Z,0.50
2022-09-30T01:43:27.589Z,0.57
2022-09-30T01:46:11.639Z,0.53
2022-09-30T01:48:47.705Z,0.50
2022-09-30T01:51:31.940Z,0.40
2022-09-30T01:54:14.870Z,0.50
2022-09-30T01:56:47.999Z,0.30
2022-09-30T02:02:29.750Z,0.38
2022-09-30T02:04:57.796Z,0.40
2022-09-30T02:07:32.350Z,0.40
2022-09-30T02:10:06.680Z,0.50
2022-09-30T02:12:38.494Z,0.68
2022-09-30T02:15:23.356Z,0.30
2022-09-30T02:18:00.076Z,0.70
2022-09-30T02:20:41.656Z,0.40
2022-09-30T02:23:18.316Z,0.40
2022-09-30T02:25:50.569Z,0.45
2022-09-30T02:28:23.438Z,0.43
2022-09-30T02:30:54.369Z,0.63
2022-09-30T02:33:31.779Z,0.40
2022-09-30T02:36:17.535Z,0.40
2022-09-30T02:38:50.208Z,0.50
2022-09-30T02:41:24.188Z,0.57
2022-09-30T02:43:52.612Z,0.40
2022-09-30T02:46:48.869Z,0.60
2022-09-30T02:49:36.927Z,0.45
2022-09-30T02:52:35.676Z,0.30
2022-09-30T02:55:29.554Z,0.52
2022-09-30T02:58:14.234Z,1.10
2022-09-30T03:00:44.727Z,0.95
2022-09-30T03:03:20.140Z,0.50
2022-09-30T03:05:52.934Z,1.38
2022-09-30T03:08:20.459Z,0.70
2022-09-30T03:10:53.721Z,1.00
2022-09-30T03:13:33.726Z,0.57
2022-09-30T03:16:36.370Z,0.90
2022-09-30T03:19:15.499Z,0.80
2022-09-30T03:22:11.059Z,0.68
2022-09-30T03:24:57.598Z,0.50
2022-09-30T03:27:52.116Z,0.40
2022-09-30T03:30:24.475Z,0.60
2022-09-30T03:33:02.446Z,0.50
2022-09-30T03:35:38.573Z,0.47
2022-09-30T03:38:19.683Z,0.52
2022-09-30T03:41:11.652Z,0.45
2022-09-30T03:44:18.112Z,0.55
2022-09-30T03:47:00.346Z,0.40
2022-09-30T03:49:34.851Z,1.02
2022-09-30T03:52:08.083Z,0.60
2022-09-30T03:54:53.503Z,0.50
2022-09-30T03:57:20.933Z,0.57
2022-09-30T03:59:47.992Z,0.50
2022-09-30T04:02:21.612Z,0.58
2022-09-30T04:04:50.134Z,0.98
2022-09-30T04:07:17.463Z,0.40
2022-09-30T04:09:44.804Z,0.30
2022-09-30T04:12:11.981Z,0.43
2022-09-30T04:14:39.400Z,0.40
2022-09-30T04:17:06.662Z,0.50
2022-09-30T04:19:38.383Z,0.55
2022-09-30T04:22:06.125Z,0.40
2022-09-30T04:24:33.578Z,0.40
2022-09-30T04:27:07.057Z,0.40
2022-09-30T04:29:34.449Z,0.70
2022-09-30T04:32:01.864Z,0.35
2022-09-30T04:34:32.140Z,0.43
2022-09-30T04:36:59.579Z,0.50
2022-09-30T04:39:26.667Z,0.50
2022-09-30T04:41:54.234Z,0.63
2022-09-30T04:44:25.827Z,0.88
2022-09-30T04:46:52.987Z,0.63
2022-09-30T04:49:20.276Z,0.65
2022-09-30T04:51:47.475Z,0.80
2022-09-30T04:54:16.223Z,0.40
2022-09-30T04:56:43.475Z,0.70
2022-09-30T04:59:10.984Z,0.63
2022-09-30T05:01:39.528Z,0.57
2022-09-30T05:04:06.735Z,1.10
2022-09-30T05:06:33.922Z,0.68
2022-09-30T05:09:03.293Z,0.55
2022-09-30T05:11:30.295Z,0.80
2022-09-30T05:13:57.366Z,0.55
2022-09-30T05:16:26.308Z,0.70
2022-09-30T05:18:53.497Z,0.47
2022-09-30T05:21:20.958Z,0.60
2022-09-30T05:23:51.725Z,0.47
2022-09-30T05:26:18.998Z,0.60
2022-09-30T05:28:46.027Z,0.70
2022-09-30T05:31:13.882Z,0.68
2022-09-30T05:33:42.176Z,0.85
2022-09-30T05:36:13.612Z,0.73
2022-09-30T05:38:40.768Z,0.60
2022-09-30T05:41:11.620Z,0.55
2022-09-30T05:43:40.765Z,0.50
2022-09-30T05:46:08.464Z,0.70
2022-09-30T05:48:37.398Z,1.83
2022-09-30T05:51:05.111Z,0.90
2022-09-30T05:53:35.432Z,0.50
2022-09-30T05:56:10.734Z,0.70
2022-09-30T05:58:43.011Z,0.50
2022-09-30T06:01:16.863Z,0.43
2022-09-30T06:06:13.112Z,0.75
2022-09-30T06:08:45.229Z,0.93
2022-09-30T06:11:16.972Z,0.70
2022-09-30T06:13:50.698Z,0.43
2022-09-30T06:16:19.855Z,0.60
2022-09-30T06:18:57.228Z,0.85
2022-09-30T06:21:24.605Z,0.70
2022-09-30T06:23:52.132Z,0.60
2022-09-30T06:26:19.488Z,0.52
2022-09-30T06:28:46.743Z,0.45
2022-09-30T06:31:15.110Z,0.70
2022-09-30T06:33:45.584Z,0.70
2022-09-30T06:36:14.681Z,0.60
2022-09-30T06:38:48.836Z,0.70
2022-09-30T06:41:16.521Z,0.70
2022-09-30T06:43:51.764Z,0.73
2022-09-30T06:46:31.235Z,0.63
2022-09-30T06:49:14.588Z,0.57
2022-09-30T06:51:42.531Z,0.50
2022-09-30T06:54:10.131Z,0.60
2022-09-30T06:56:38.105Z,0.70
2022-09-30T06:59:05.461Z,1.10
2022-09-30T07:01:36.415Z,0.70
2022-09-30T07:04:09.890Z,0.88
2022-09-30T07:06:39.261Z,0.52
2022-09-30T07:09:07.566Z,1.15
2022-09-30T07:11:35.426Z,0.60
2022-09-30T07:14:04.607Z,0.73
2022-09-30T07:16:34.568Z,0.70
2022-09-30T07:19:02.714Z,0.70
2022-09-30T07:21:31.741Z,0.70
2022-09-30T07:24:00.247Z,0.50
2022-09-30T07:27:04.808Z,0.90
2022-09-30T07:29:50.199Z,1.10
2022-09-30T07:32:36.156Z,0.98
2022-09-30T07:35:40.469Z,1.00
2022-09-30T07:38:20.047Z,1.02
2022-09-30T07:41:39.463Z,0.70
2022-09-30T07:44:27.110Z,0.90
2022-09-30T07:47:06.816Z,1.00
2022-09-30T07:49:57.293Z,0.73
2022-09-30T07:52:25.903Z,0.70
2022-09-30T07:54:53.051Z,1.00
2022-09-30T07:57:35.727Z,0.70
2022-09-30T08:00:29.780Z,0.98
2022-09-30T08:02:53.982Z,0.70
2022-09-30T08:05:21.341Z,0.77
2022-09-30T08:07:49.524Z,1.00
2022-09-30T08:12:53.344Z,0.80
2022-09-30T08:18:21.765Z,1.10
2022-09-30T08:20:49.445Z,1.58
2022-09-30T08:23:38.185Z,1.13
2022-09-30T08:29:01.549Z,1.27
2022-09-30T08:31:41.058Z,1.30
2022-09-30T08:34:09.599Z,0.70
2022-09-30T08:36:37.019Z,1.25
2022-09-30T08:39:13.359Z,0.82
2022-09-30T08:42:37.889Z,0.80
2022-09-30T08:45:23.604Z,0.80
2022-09-30T08:51:21.149Z,1.10
2022-09-30T08:53:49.878Z,0.90
2022-09-30T08:56:24.782Z,0.85
2022-09-30T08:59:00.088Z,1.02
2022-09-30T09:01:36.850Z,1.08
2022-09-30T09:04:07.052Z,0.90
2022-09-30T09:06:52.835Z,1.08
2022-09-30T09:10:01.852Z,0.95
2022-09-30T09:13:05.351Z,1.10
2022-09-30T09:15:57.557Z,1.40
2022-09-30T09:18:27.901Z,2.67
2022-09-30T09:21:00.693Z,1.67
2022-09-30T09:23:33.219Z,0.73
2022-09-30T09:26:00.706Z,0.98
2022-09-30T09:28:51.782Z,1.05
2022-09-30T09:31:22.028Z,0.90
2022-09-30T09:33:49.319Z,1.10
2022-09-30T09:36:24.872Z,1.40
2022-09-30T09:39:07.192Z,1.30
2022-09-30T09:42:07.734Z,3.08
2022-09-30T09:45:03.259Z,0.93
2022-09-30T09:47:30.524Z,1.05
2022-09-30T09:50:05.170Z,1.05
2022-09-30T09:53:07.238Z,1.00
2022-09-30T09:55:35.577Z,0.98
2022-09-30T09:58:19.922Z,1.17
2022-09-30T10:00:50.317Z,1.48
2022-09-30T10:03:27.082Z,0.93
2022-09-30T10:06:12.978Z,1.33
2022-09-30T10:08:53.860Z,1.13
2022-09-30T10:11:24.783Z,1.02
2022-09-30T10:13:57.244Z,0.75
2022-09-30T10:16:35.756Z,1.30
2022-09-30T10:19:09.774Z,0.93
2022-09-30T10:21:46.016Z,1.95
2022-09-30T10:24:21.853Z,1.00
2022-09-30T10:26:53.878Z,1.20
2022-09-30T10:29:48.086Z,1.50
2022-09-30T10:32:26.467Z,0.90
2022-09-30T10:35:05.164Z,1.05
2022-09-30T10:37:33.686Z,1.35
2022-09-30T10:40:12.325Z,0.85
2022-09-30T10:42:59.435Z,0.73
2022-09-30T10:45:49.366Z,1.25
2022-09-30T10:48:57.999Z,1.00
2022-09-30T10:51:36.829Z,1.23
2022-09-30T10:54:10.680Z,0.98
2022-09-30T10:56:47.651Z,1.40
2022-09-30T10:59:32.189Z,0.80
2022-09-30T11:02:26.237Z,1.10
2022-09-30T11:05:30.606Z,0.70
2022-09-30T11:08:26.032Z,0.95
2022-09-30T11:11:19.281Z,1.00
2022-09-30T11:14:14.219Z,1.05
2022-09-30T11:17:22.669Z,1.05
2022-09-30T11:20:19.254Z,1.40
2022-09-30T11:23:00.029Z,0.90
2022-09-30T11:25:31.969Z,1.10
2022-09-30T11:28:10.230Z,1.40
2022-09-30T11:30:46.469Z,2.22
2022-09-30T11:33:40.428Z,1.33
2022-09-30T11:36:42.196Z,1.40
2022-09-30T11:39:37.273Z,2.95
2022-09-30T11:42:22.946Z,1.20
2022-09-30T11:45:05.966Z,1.63
2022-09-30T11:48:09.838Z,1.30
2022-09-30T11:50:52.065Z,1.55
2022-09-30T11:53:46.506Z,1.40
2022-09-30T11:56:44.633Z,1.40
2022-09-30T11:59:27.950Z,1.15
2022-09-30T12:02:02.432Z,1.40
2022-09-30T12:04:37.222Z,1.50
2022-09-30T12:07:25.588Z,1.02
2022-09-30T12:10:06.258Z,1.40
2022-09-30T12:12:34.350Z,1.33
2022-09-30T12:15:09.292Z,1.52
2022-09-30T12:17:55.920Z,1.42
2022-09-30T12:20:33.680Z,2.28
2022-09-30T12:23:11.491Z,1.55
2022-09-30T12:25:46.770Z,1.45
2022-09-30T12:29:02.655Z,1.63
2022-09-30T12:31:46.667Z,1.80
2022-09-30T12:34:39.490Z,1.30
2022-09-30T12:37:45.263Z,1.48
2022-09-30T12:40:40.961Z,1.42
2022-09-30T12:43:25.949Z,1.23
2022-09-30T12:46:24.089Z,1.20
2022-09-30T12:49:06.386Z,1.30
2022-09-30T12:51:43.550Z,1.30
2022-09-30T12:54:26.355Z,0.98
2022-09-30T12:57:00.854Z,1.10
2022-09-30T12:59:32.431Z,1.00
2022-09-30T13:02:02.791Z,0.95
2022-09-30T13:04:46.170Z,1.40
2022-09-30T13:07:25.497Z,1.52
2022-09-30T13:10:03.136Z,1.08
2022-09-30T13:12:48.528Z,0.90
2022-09-30T13:15:38.190Z,1.52
2022-09-30T13:18:20.519Z,1.00
2022-09-30T13:21:04.900Z,0.65
2022-09-30T13:23:45.952Z,1.20
2022-09-30T13:26:35.571Z,1.10
2022-09-30T13:29:02.930Z,1.40
2022-09-30T13:31:52.803Z,0.88
2022-09-30T13:34:32.971Z,0.90
2022-09-30T13:37:14.745Z,1.33
2022-09-30T13:39:50.417Z,1.00
2022-09-30T13:42:27.398Z,0.70
2022-09-30T13:45:02.352Z,1.08
2022-09-30T13:48:02.974Z,0.80
2022-09-30T13:50:54.537Z,1.08
2022-09-30T13:53:34.258Z,0.85
2022-09-30T13:56:07.935Z,0.73
2022-09-30T13:59:10.107Z,1.00
2022-09-30T14:01:39.091Z,1.08
2022-09-30T14:04:23.770Z,0.70
2022-09-30T14:07:29.667Z,0.60
2022-09-30T14:10:34.857Z,0.77
2022-09-30T14:13:19.864Z,0.60
2022-09-30T14:15:56.216Z,0.35
2022-09-30T14:19:11.549Z,0.50
2022-09-30T14:21:52.120Z,0.40
2022-09-30T14:24:24.183Z,0.40
2022-09-30T14:27:06.167Z,1.13
2022-09-30T14:29:40.862Z,0.43
2022-09-30T14:32:19.783Z,0.80
2022-09-30T14:34:50.596Z,0.40
2022-09-30T14:37:31.423Z,0.65
2022-09-30T14:39:59.400Z,1.00
2022-09-30T14:42:32.821Z,0.95
2022-09-30T14:45:06.495Z,0.55
2022-09-30T14:50:20.370Z,1.63
2022-09-30T14:52:53.764Z,0.90
2022-09-30T14:55:28.560Z,0.30
2022-09-30T14:58:19.418Z,0.70
2022-09-30T15:00:58.793Z,1.02
2022-09-30T15:03:27.679Z,0.82
2022-09-30T15:05:57.293Z,0.93
2022-09-30T15:08:25.109Z,1.08
2022-09-30T15:10:54.879Z,0.80
2022-09-30T15:13:25.271Z,0.80
2022-09-30T15:15:53.378Z,0.73
2022-09-30T15:18:28.853Z,0.77
2022-09-30T15:21:00.044Z,0.60
2022-09-30T15:23:32.808Z,0.50
2022-09-30T15:26:00.830Z,0.70
2022-09-30T15:28:28.362Z,0.40
2022-09-30T15:30:59.382Z,0.52
2022-09-30T15:33:29.366Z,1.55
2022-09-30T15:36:09.586Z,1.00
2022-09-30T15:38:39.016Z,1.00
2022-09-30T15:41:11.594Z,0.75
2022-09-30T15:43:43.349Z,1.02
2022-09-30T15:46:19.776Z,0.80
2022-09-30T15:48:47.693Z,0.70
2022-09-30T15:51:28.920Z,1.00
2022-09-30T15:54:00.582Z,1.17
2022-09-30T15:56:33.157Z,0.60
2022-09-30T15:59:04.038Z,0.70
2022-09-30T16:01:46.375Z,0.90
2022-09-30T16:04:16.458Z,0.65
2022-09-30T16:06:54.390Z,0.77
2022-09-30T16:09:32.363Z,0.93
2022-09-30T16:12:03.697Z,0.82
2022-09-30T16:14:45.013Z,0.65
2022-09-30T16:17:21.181Z,1.08
2022-09-30T16:19:52.819Z,0.60
2022-09-30T16:22:41.647Z,0.50
2022-09-30T16:25:33.999Z,0.60
2022-09-30T16:28:02.430Z,0.70
2022-09-30T16:30:32.835Z,0.90
2022-09-30T16:33:04.779Z,0.50
2022-09-30T16:35:33.597Z,0.63
2022-09-30T16:38:03.746Z,0.50
2022-09-30T16:40:32.755Z,0.80
2022-09-30T16:43:03.183Z,0.70
2022-09-30T16:45:33.606Z,1.50
2022-09-30T16:48:02.798Z,0.65
2022-09-30T16:50:41.070Z,0.60
2022-09-30T16:53:10.772Z,0.60
2022-09-30T16:55:38.207Z,0.70
2022-09-30T16:58:05.920Z,0.55
2022-09-30T17:00:33.673Z,0.47
2022-09-30T17:03:01.012Z,0.50
2022-09-30T17:05:28.337Z,0.90
2022-09-30T17:07:58.556Z,0.65
2022-09-30T17:10:35.742Z,0.50
2022-09-30T17:13:06.906Z,0.63
2022-09-30T17:15:36.399Z,0.50
2022-09-30T17:18:09.003Z,0.88
2022-09-30T17:20:37.903Z,0.80
2022-09-30T17:23:07.444Z,1.38
2022-09-30T17:25:35.308Z,0.90
2022-09-30T17:28:04.788Z,0.80
2022-09-30T17:30:33.726Z,0.85
2022-09-30T17:33:01.076Z,0.98
2022-09-30T17:35:31.659Z,1.13
2022-09-30T17:37:59.114Z,0.80
2022-09-30T17:40:44.493Z,0.90
2022-09-30T17:43:11.812Z,0.70
2022-09-30T17:45:42.905Z,1.23
2022-09-30T17:48:11.630Z,0.82
2022-09-30T17:50:44.769Z,0.77
2022-09-30T17:53:15.833Z,0.95
2022-09-30T17:55:45.456Z,1.27
2022-09-30T17:58:13.051Z,0.90
2022-09-30T18:00:40.349Z,1.50
2022-09-30T18:03:09.191Z,0.80
2022-09-30T18:05:37.207Z,1.00
2022-09-30T18:08:06.993Z,1.02
2022-09-30T18:10:38.128Z,1.38
2022-09-30T18:13:07.451Z,1.35
2022-09-30T18:15:37.723Z,1.23
2022-09-30T18:18:05.082Z,0.90
2022-09-30T18:20:33.028Z,1.10
2022-09-30T18:23:00.580Z,1.10
2022-09-30T18:25:31.067Z,0.98
2022-09-30T18:27:59.724Z,1.13
2022-09-30T18:30:27.623Z,1.65
2022-09-30T18:32:57.684Z,1.13
2022-09-30T18:35:25.812Z,0.90
2022-09-30T18:37:56.142Z,1.27
2022-09-30T18:40:27.351Z,1.17
2022-09-30T18:43:02.050Z,1.23
2022-09-30T18:45:36.358Z,0.85
2022-09-30T18:48:08.848Z,1.00
2022-09-30T18:50:40.254Z,1.02
2022-09-30T18:53:10.260Z,1.20
2022-09-30T18:55:41.639Z,1.42
2022-09-30T18:58:12.292Z,1.25
2022-09-30T19:00:40.449Z,1.65
2022-09-30T19:03:14.442Z,2.05
2022-09-30T19:05:42.651Z,1.23
2022-09-30T19:08:11.593Z,1.33
2022-09-30T19:10:41.335Z,0.98
2022-09-30T19:13:11.205Z,0.95
2022-09-30T19:15:40.294Z,0.90
2022-09-30T19:18:07.756Z,1.67
2022-09-30T19:20:38.688Z,0.90
2022-09-30T19:23:10.973Z,1.20
2022-09-30T19:25:42.619Z,1.33
2022-09-30T19:28:10.364Z,0.98
2022-09-30T19:30:42.268Z,0.85
2022-09-30T19:33:11.051Z,1.33
2022-09-30T19:35:41.059Z,0.75
2022-09-30T19:38:09.104Z,1.30
2022-09-30T19:40:39.088Z,1.48
2022-09-30T19:43:10.473Z,1.10
2022-09-30T19:45:40.361Z,1.23
2022-09-30T19:48:09.851Z,1.13
2022-09-30T19:50:37.695Z,1.52
2022-09-30T19:53:04.849Z,1.83
2022-09-30T19:55:42.830Z,1.80
2022-09-30T19:58:15.398Z,1.80
2022-09-30T20:00:45.292Z,3.80
2022-09-30T20:03:16.385Z,2.45
2022-09-30T20:05:47.888Z,2.78
2022-09-30T20:08:19.366Z,2.47
2022-09-30T20:10:46.631Z,2.40
2022-09-30T20:13:14.180Z,3.05
2022-09-30T20:15:56.842Z,1.73
2022-09-30T20:18:24.438Z,2.28
2022-09-30T20:20:56.906Z,2.60
2022-09-30T20:23:25.575Z,3.50
2022-09-30T20:25:54.099Z,3.53
2022-09-30T20:28:23.241Z,3.58
2022-09-30T20:30:50.557Z,3.47
2022-09-30T20:33:20.120Z,3.00
2022-09-30T20:35:48.343Z,3.13
2022-09-30T20:38:19.558Z,2.53
2022-09-30T20:40:46.709Z,2.50
2022-09-30T20:43:13.999Z,2.05
2022-09-30T20:45:41.674Z,2.40
2022-09-30T20:48:08.970Z,2.20
2022-09-30T20:50:39.903Z,2.38
2022-09-30T20:53:12.545Z,2.45
2022-09-30T20:55:43.812Z,2.30
2022-09-30T20:58:14.356Z,2.80
2022-09-30T21:00:43.844Z,2.08
2022-09-30T21:03:15.504Z,2.08
2022-09-30T21:05:52.940Z,1.83
2022-09-30T21:08:20.192Z,2.05
2022-09-30T21:10:48.597Z,2.10
2022-09-30T21:13:15.799Z,1.88
2022-09-30T21:15:43.051Z,2.17
2022-09-30T21:18:10.620Z,1.60
2022-09-30T21:20:38.572Z,2.13
2022-09-30T21:23:05.649Z,2.00
2022-09-30T21:25:32.981Z,1.80
2022-09-30T21:28:06.806Z,1.65
2022-09-30T21:30:42.552Z,2.08
2022-09-30T21:33:09.804Z,1.90
2022-09-30T21:35:37.050Z,1.80
2022-09-30T21:38:04.591Z,2.33
2022-09-30T21:40:34.400Z,1.88
2022-09-30T21:43:01.870Z,2.40
2022-09-30T21:45:29.179Z,2.33
2022-09-30T21:48:10.566Z,2.00
2022-09-30T21:50:38.092Z,1.95
2022-09-30T21:53:05.504Z,2.63
2022-09-30T21:55:33.687Z,2.08
2022-09-30T21:58:00.975Z,1.80
2022-09-30T22:00:28.463Z,1.95
2022-09-30T22:02:55.550Z,1.67
2022-09-30T22:05:23.140Z,2.30
2022-09-30T22:07:50.776Z,2.30
2022-09-30T22:10:20.705Z,2.22
2022-09-30T22:12:54.490Z,1.80
2022-09-30T22:15:22.396Z,2.15
2022-09-30T22:17:52.418Z,2.42
2022-09-30T22:20:20.541Z,2.60
2022-09-30T22:22:48.845Z,2.70
2022-09-30T22:25:16.605Z,2.10
2022-09-30T22:27:44.382Z,2.15
2022-09-30T22:30:11.589Z,2.20
2022-09-30T22:32:38.638Z,2.05
2022-09-30T22:35:24.897Z,2.28
2022-09-30T22:38:10.687Z,1.92
2022-09-30T22:40:37.801Z,1.98
2022-09-30T22:43:04.960Z,2.08
2022-09-30T22:45:32.020Z,1.83
2022-09-30T22:47:59.235Z,1.52
2022-09-30T22:50:29.016Z,3.03
2022-09-30T22:52:56.192Z,3.33
2022-09-30T22:55:23.387Z,5.25
2022-09-30T22:57:50.972Z,9.00
2022-09-30T23:00:18.039Z,7.70
2022-09-30T23:02:45.345Z,6.55
2022-09-30T23:05:12.392Z,5.28
2022-09-30T23:07:40.978Z,4.13
2022-09-30T23:10:09.831Z,3.72
2022-09-30T23:12:36.992Z,2.58
2022-09-30T23:15:04.643Z,2.67
2022-09-30T23:17:31.923Z,2.38
2022-09-30T23:19:58.948Z,2.05
2022-09-30T23:22:26.152Z,1.67
2022-09-30T23:24:53.351Z,2.10
2022-09-30T23:27:20.601Z,1.77
2022-09-30T23:29:47.751Z,1.73
2022-09-30T23:32:15.090Z,1.58
2022-09-30T23:34:42.151Z,1.92
2022-09-30T23:37:09.434Z,1.42
2022-09-30T23:39:36.956Z,2.97
2022-09-30T23:42:04.263Z,4.45
2022-09-30T23:44:31.414Z,3.67
2022-09-30T23:47:34.182Z,2.58
2022-09-30T23:50:03.775Z,1.88
2022-09-30T23:52:31.065Z,1.65
2022-09-30T23:54:58.156Z,1.83
2022-09-30T23:57:28.036Z,1.75
2022-09-30T23:59:58.886Z,1.90
